MSC Lara — HPUD — position and weather

sailwx.info

Track history (hours):
 
Tides and Currents Weather Stations Pressure Air Temp Water Temp Dewpoint Dewpoint Depression Visibility Wind Speed Wind Dir Waves Ship Positions

MSC Lara

Last reported at 2014-Sep-01 20:15 UTC. Time now 2014-Sep-18 03:40 UTC.
Position N 44°10' E 035°40'.
Warning: this ship's position is 16 days out of date.

Type: Ship (hazmat cat D). MMSI: 355746000.

Date/timePositionNaut miles runAvg speedWind from/ knotsBaromVisibWave heightAir tempDewpointWater temp
2014-Sep-01 20:15N 44°10' E 035°40'3618.2
2014-Sep-01 18:15N 44°29' E 036°23'1217.3
2014-Sep-01 17:33N 44°41' E 036°28'  
2014-Aug-28 03:13N 45°10' E 036°33'  
2014-Aug-25 01:31N 40°57' E 028°59'20 4.9
2014-Aug-24 21:32N 40°45' E 028°39'1 0.8
2014-Aug-24 20:33N 40°45' E 028°40'2 0.7
2014-Aug-24 17:32N 40°47' E 028°42'0 0.4
2014-Aug-24 16:32N 40°47' E 028°42'0 0.1
2014-Aug-24 15:33N 40°47' E 028°42'1 1.2
2014-Aug-24 14:32N 40°46' E 028°41'6 5.5
2014-Aug-24 13:32N 40°47' E 028°48'1414.2
2014-Aug-24 12:33N 40°47' E 029°07'5 5.0
2014-Aug-24 11:33N 40°50' E 029°12'0 0.0
2014-Aug-24 10:33N 40°50' E 029°12'0 0.0
2014-Aug-24 09:33N 40°50' E 029°12'0 0.0
2014-Aug-24 08:27N 40°50' E 029°12'0 0.0
2014-Aug-24 07:20N 40°50' E 029°12'0 0.1
2014-Aug-24 06:32N 40°50' E 029°12'0 0.2
2014-Aug-24 05:33N 40°50' E 029°12'0 0.1
2014-Aug-24 04:33N 40°50' E 029°12'0 0.3
2014-Aug-24 03:33N 40°50' E 029°12'1 1.0
2014-Aug-24 02:32N 40°51' E 029°13'3 2.5
2014-Aug-24 01:30N 40°50' E 029°16'0 0.0
2014-Aug-24 00:12N 40°50' E 029°16'0 0.0
2014-Aug-23 23:30N 40°50' E 029°16'0 0.0
2014-Aug-23 22:30N 40°50' E 029°16'0 0.0
2014-Aug-23 21:30N 40°50' E 029°16'0 0.0
2014-Aug-23 20:30N 40°50' E 029°16'0 0.0
2014-Aug-23 19:30N 40°50' E 029°16'0 0.0
2014-Aug-23 03:26N 40°50' E 029°16'0 0.0
2014-Aug-23 02:32N 40°50' E 029°16'0 0.0
2014-Aug-23 01:32N 40°50' E 029°16'0 0.0
2014-Aug-23 00:32N 40°50' E 029°16'0 0.0
2014-Aug-22 23:32N 40°50' E 029°16'0 0.0
2014-Aug-22 22:32N 40°50' E 029°16'0 0.0
2014-Aug-22 21:32N 40°50' E 029°16'0 0.0
2014-Aug-22 20:32N 40°50' E 029°16'  
Track history (hours):
 
Tides and Currents Weather Stations Pressure Air Temp Water Temp Dewpoint Dewpoint Depression Visibility Wind Speed Wind Dir Waves Ship Positions

MSC Lara

Last reported at 2014-Sep-01 20:15 UTC. Time now 2014-Sep-18 03:40 UTC.
Position N 44°10' E 035°40'.
Warning: this ship's position is 16 days out of date.

Type: Ship (hazmat cat D). MMSI: 355746000.

Date/timePositionNaut miles runAvg speedWind from/ knotsBaromVisibWave heightAir tempDewpointWater temp
2014-Sep-01 20:15N 44°10' E 035°40'3618.2
2014-Sep-01 18:15N 44°29' E 036°23'1217.3
2014-Sep-01 17:33N 44°41' E 036°28'  
2014-Aug-28 03:13N 45°10' E 036°33'  
2014-Aug-25 01:31N 40°57' E 028°59'20 4.9
2014-Aug-24 21:32N 40°45' E 028°39'1 0.8
2014-Aug-24 20:33N 40°45' E 028°40'2 0.7
2014-Aug-24 17:32N 40°47' E 028°42'0 0.4
2014-Aug-24 16:32N 40°47' E 028°42'0 0.1
2014-Aug-24 15:33N 40°47' E 028°42'1 1.2
2014-Aug-24 14:32N 40°46' E 028°41'6 5.5
2014-Aug-24 13:32N 40°47' E 028°48'1414.2
2014-Aug-24 12:33N 40°47' E 029°07'5 5.0
2014-Aug-24 11:33N 40°50' E 029°12'0 0.0
2014-Aug-24 10:33N 40°50' E 029°12'0 0.0
2014-Aug-24 09:33N 40°50' E 029°12'0 0.0
2014-Aug-24 08:27N 40°50' E 029°12'0 0.0
2014-Aug-24 07:20N 40°50' E 029°12'0 0.1
2014-Aug-24 06:32N 40°50' E 029°12'0 0.2
2014-Aug-24 05:33N 40°50' E 029°12'0 0.1
2014-Aug-24 04:33N 40°50' E 029°12'0 0.3
2014-Aug-24 03:33N 40°50' E 029°12'1 1.0
2014-Aug-24 02:32N 40°51' E 029°13'3 2.5
2014-Aug-24 01:30N 40°50' E 029°16'0 0.0
2014-Aug-24 00:12N 40°50' E 029°16'0 0.0
2014-Aug-23 23:30N 40°50' E 029°16'0 0.0
2014-Aug-23 22:30N 40°50' E 029°16'0 0.0
2014-Aug-23 21:30N 40°50' E 029°16'0 0.0
2014-Aug-23 20:30N 40°50' E 029°16'0 0.0
2014-Aug-23 19:30N 40°50' E 029°16'0 0.0
2014-Aug-23 03:26N 40°50' E 029°16'0 0.0
2014-Aug-23 02:32N 40°50' E 029°16'0 0.0
2014-Aug-23 01:32N 40°50' E 029°16'0 0.0
2014-Aug-23 00:32N 40°50' E 029°16'0 0.0
2014-Aug-22 23:32N 40°50' E 029°16'0 0.0
2014-Aug-22 22:32N 40°50' E 029°16'0 0.0
2014-Aug-22 21:32N 40°50' E 029°16'0 0.0
2014-Aug-22 20:32N 40°50' E 029°16'  

Dump ship's entire track history